sensor_id;sensor_type;location;lat;lon;timestamp;temperature;humidity
13686;DHT22;6915;48.296;8.874;2023-07-29T00:00:03;16.20;99.90
13686;DHT22;6915;48.296;8.874;2023-07-29T00:02:32;16.10;99.90
13686;DHT22;6915;48.296;8.874;2023-07-29T00:05:00;16.00;99.90
13686;DHT22;6915;48.296;8.874;2023-07-29T00:07:30;16.00;99.90
13686;DHT22;6915;48.296;8.874;2023-07-29T00:09:58;16.10;99.90
13686;DHT22;6915;48.296;8.874;2023-07-29T00:12:27;16.10;99.90
13686;DHT22;6915;48.296;8.874;2023-07-29T00:14:56;16.20;99.90
13686;DHT22;6915;48.296;8.874;2023-07-29T00:17:25;16.20;99.90
13686;DHT22;6915;48.296;8.874;2023-07-29T00:19:53;16.20;99.90
13686;DHT22;6915;48.296;8.874;2023-07-29T00:22:22;16.20;99.90
13686;DHT22;6915;48.296;8.874;2023-07-29T00:24:55;16.20;99.90
13686;DHT22;6915;48.296;8.874;2023-07-29T00:27:26;16.20;99.90
13686;DHT22;6915;48.296;8.874;2023-07-29T00:29:55;16.20;99.90
13686;DHT22;6915;48.296;8.874;2023-07-29T00:32:24;16.30;99.90
13686;DHT22;6915;48.296;8.874;2023-07-29T00:34:53;16.20;99.90
13686;DHT22;6915;48.296;8.874;2023-07-29T00:37:22;16.20;99.90
13686;DHT22;6915;48.296;8.874;2023-07-29T00:39:51;16.20;99.90
13686;DHT22;6915;48.296;8.874;2023-07-29T00:42:20;16.20;99.90
13686;DHT22;6915;48.296;8.874;2023-07-29T00:44:49;16.20;99.90
13686;DHT22;6915;48.296;8.874;2023-07-29T00:47:18;16.20;99.90
13686;DHT22;6915;48.296;8.874;2023-07-29T00:49:47;16.10;99.90
13686;DHT22;6915;48.296;8.874;2023-07-29T00:52:16;16.10;99.90
13686;DHT22;6915;48.296;8.874;2023-07-29T00:54:44;16.00;99.90
13686;DHT22;6915;48.296;8.874;2023-07-29T00:57:15;16.00;99.90
13686;DHT22;6915;48.296;8.874;2023-07-29T00:59:46;16.00;99.90
13686;DHT22;6915;48.296;8.874;2023-07-29T01:02:14;16.00;99.90
13686;DHT22;6915;48.296;8.874;2023-07-29T01:04:43;15.90;99.90
13686;DHT22;6915;48.296;8.874;2023-07-29T01:07:17;15.90;99.90
13686;DHT22;6915;48.296;8.874;2023-07-29T01:09:53;16.00;99.90
13686;DHT22;6915;48.296;8.874;2023-07-29T01:12:28;16.00;99.90
13686;DHT22;6915;48.296;8.874;2023-07-29T01:15:11;16.00;99.90
13686;DHT22;6915;48.296;8.874;2023-07-29T01:17:46;16.00;99.90
13686;DHT22;6915;48.296;8.874;2023-07-29T01:20:16;16.00;99.90
13686;DHT22;6915;48.296;8.874;2023-07-29T01:22:47;15.90;99.90
13686;DHT22;6915;48.296;8.874;2023-07-29T01:25:18;16.00;99.90
13686;DHT22;6915;48.296;8.874;2023-07-29T01:27:48;16.00;99.90
13686;DHT22;6915;48.296;8.874;2023-07-29T01:30:19;15.90;99.90
13686;DHT22;6915;48.296;8.874;2023-07-29T01:32:54;15.80;99.90
13686;DHT22;6915;48.296;8.874;2023-07-29T01:35:27;15.80;99.90
13686;DHT22;6915;48.296;8.874;2023-07-29T01:37:58;15.70;99.90
13686;DHT22;6915;48.296;8.874;2023-07-29T01:40:31;15.80;99.90
13686;DHT22;6915;48.296;8.874;2023-07-29T01:43:00;15.70;99.90
13686;DHT22;6915;48.296;8.874;2023-07-29T01:45:30;15.60;99.90
13686;DHT22;6915;48.296;8.874;2023-07-29T01:48:02;15.60;99.90
13686;DHT22;6915;48.296;8.874;2023-07-29T01:50:31;15.60;99.90
13686;DHT22;6915;48.296;8.874;2023-07-29T01:53:00;15.40;99.90
13686;DHT22;6915;48.296;8.874;2023-07-29T01:55:28;15.30;99.90
13686;DHT22;6915;48.296;8.874;2023-07-29T01:57:57;15.50;99.90
13686;DHT22;6915;48.296;8.874;2023-07-29T02:00:25;15.30;99.90
13686;DHT22;6915;48.296;8.874;2023-07-29T02:02:55;15.30;99.90
13686;DHT22;6915;48.296;8.874;2023-07-29T02:05:23;15.20;99.90
13686;DHT22;6915;48.296;8.874;2023-07-29T02:07:52;15.10;99.90
13686;DHT22;6915;48.296;8.874;2023-07-29T02:10:20;15.20;99.90
13686;DHT22;6915;48.296;8.874;2023-07-29T02:12:50;15.20;99.90
13686;DHT22;6915;48.296;8.874;2023-07-29T02:15:19;15.20;99.90
13686;DHT22;6915;48.296;8.874;2023-07-29T02:17:49;15.10;99.90
13686;DHT22;6915;48.296;8.874;2023-07-29T02:20:18;15.00;99.90
13686;DHT22;6915;48.296;8.874;2023-07-29T02:22:47;15.10;99.90
13686;DHT22;6915;48.296;8.874;2023-07-29T02:25:16;15.10;99.90
13686;DHT22;6915;48.296;8.874;2023-07-29T02:27:45;15.00;99.90
13686;DHT22;6915;48.296;8.874;2023-07-29T02:30:15;15.00;99.90
13686;DHT22;6915;48.296;8.874;2023-07-29T02:32:45;15.00;99.90
13686;DHT22;6915;48.296;8.874;2023-07-29T02:35:13;14.90;99.90
13686;DHT22;6915;48.296;8.874;2023-07-29T02:37:42;15.00;99.90
13686;DHT22;6915;48.296;8.874;2023-07-29T02:40:12;15.00;99.90
13686;DHT22;6915;48.296;8.874;2023-07-29T02:42:42;15.10;99.90
13686;DHT22;6915;48.296;8.874;2023-07-29T02:45:12;15.10;99.90
13686;DHT22;6915;48.296;8.874;2023-07-29T02:47:42;15.10;99.90
13686;DHT22;6915;48.296;8.874;2023-07-29T02:50:11;15.10;99.90
13686;DHT22;6915;48.296;8.874;2023-07-29T02:52:40;15.10;99.90
13686;DHT22;6915;48.296;8.874;2023-07-29T02:55:09;15.10;99.90
13686;DHT22;6915;48.296;8.874;2023-07-29T02:57:38;15.10;99.90
13686;DHT22;6915;48.296;8.874;2023-07-29T03:00:06;15.10;99.90
13686;DHT22;6915;48.296;8.874;2023-07-29T03:02:35;15.10;99.90
13686;DHT22;6915;48.296;8.874;2023-07-29T03:05:05;15.20;99.90
13686;DHT22;6915;48.296;8.874;2023-07-29T03:07:34;15.20;99.90
13686;DHT22;6915;48.296;8.874;2023-07-29T03:10:03;15.20;99.90
13686;DHT22;6915;48.296;8.874;2023-07-29T03:12:31;15.30;99.90
13686;DHT22;6915;48.296;8.874;2023-07-29T03:15:00;15.30;99.90
13686;DHT22;6915;48.296;8.874;2023-07-29T03:17:29;15.30;99.90
13686;DHT22;6915;48.296;8.874;2023-07-29T03:19:57;15.30;99.90
13686;DHT22;6915;48.296;8.874;2023-07-29T03:22:28;15.30;99.90
13686;DHT22;6915;48.296;8.874;2023-07-29T03:24:56;15.40;99.90
13686;DHT22;6915;48.296;8.874;2023-07-29T03:27:25;15.50;99.90
13686;DHT22;6915;48.296;8.874;2023-07-29T03:29:53;15.50;99.90
13686;DHT22;6915;48.296;8.874;2023-07-29T03:32:22;15.60;99.90
13686;DHT22;6915;48.296;8.874;2023-07-29T03:34:51;15.60;99.90
13686;DHT22;6915;48.296;8.874;2023-07-29T03:37:20;15.70;99.90
13686;DHT22;6915;48.296;8.874;2023-07-29T03:39:50;15.70;99.90
13686;DHT22;6915;48.296;8.874;2023-07-29T03:42:19;15.70;99.90
13686;DHT22;6915;48.296;8.874;2023-07-29T03:44:48;15.70;99.90
13686;DHT22;6915;48.296;8.874;2023-07-29T03:47:16;15.70;99.90
13686;DHT22;6915;48.296;8.874;2023-07-29T03:49:45;15.70;99.90
13686;DHT22;6915;48.296;8.874;2023-07-29T03:52:13;15.70;99.90
13686;DHT22;6915;48.296;8.874;2023-07-29T03:54:42;15.70;99.90
13686;DHT22;6915;48.296;8.874;2023-07-29T03:57:12;15.60;99.90
13686;DHT22;6915;48.296;8.874;2023-07-29T03:59:41;15.60;99.90
13686;DHT22;6915;48.296;8.874;2023-07-29T04:02:10;15.60;99.90
13686;DHT22;6915;48.296;8.874;2023-07-29T04:04:41;15.50;99.90
13686;DHT22;6915;48.296;8.874;2023-07-29T04:07:11;15.50;99.90
13686;DHT22;6915;48.296;8.874;2023-07-29T04:09:40;15.50;99.90
13686;DHT22;6915;48.296;8.874;2023-07-29T04:12:11;15.50;99.90
13686;DHT22;6915;48.296;8.874;2023-07-29T04:14:40;15.60;99.90
13686;DHT22;6915;48.296;8.874;2023-07-29T04:17:09;15.50;99.90
13686;DHT22;6915;48.296;8.874;2023-07-29T04:19:38;15.60;99.90
13686;DHT22;6915;48.296;8.874;2023-07-29T04:22:07;15.60;99.90
13686;DHT22;6915;48.296;8.874;2023-07-29T04:24:35;15.70;99.90
13686;DHT22;6915;48.296;8.874;2023-07-29T04:27:05;15.80;99.90
13686;DHT22;6915;48.296;8.874;2023-07-29T04:29:36;15.80;99.90
13686;DHT22;6915;48.296;8.874;2023-07-29T04:32:05;15.80;99.90
13686;DHT22;6915;48.296;8.874;2023-07-29T04:34:33;15.90;99.90
13686;DHT22;6915;48.296;8.874;2023-07-29T04:37:02;16.00;99.90
13686;DHT22;6915;48.296;8.874;2023-07-29T04:39:30;16.00;99.90
13686;DHT22;6915;48.296;8.874;2023-07-29T04:42:00;16.10;99.90
13686;DHT22;6915;48.296;8.874;2023-07-29T04:44:29;16.20;99.90
13686;DHT22;6915;48.296;8.874;2023-07-29T04:46:59;16.20;99.90
13686;DHT22;6915;48.296;8.874;2023-07-29T04:49:27;16.40;99.90
13686;DHT22;6915;48.296;8.874;2023-07-29T04:51:56;16.70;99.90
13686;DHT22;6915;48.296;8.874;2023-07-29T04:54:24;17.30;99.90
13686;DHT22;6915;48.296;8.874;2023-07-29T04:56:53;17.80;99.90
13686;DHT22;6915;48.296;8.874;2023-07-29T04:59:21;18.30;99.90
13686;DHT22;6915;48.296;8.874;2023-07-29T05:01:50;18.50;99.90
13686;DHT22;6915;48.296;8.874;2023-07-29T05:04:20;18.60;99.90
13686;DHT22;6915;48.296;8.874;2023-07-29T05:06:50;18.60;99.90
13686;DHT22;6915;48.296;8.874;2023-07-29T05:09:19;18.90;99.90
13686;DHT22;6915;48.296;8.874;2023-07-29T05:11:48;19.30;99.90
13686;DHT22;6915;48.296;8.874;2023-07-29T05:14:18;19.30;99.90
13686;DHT22;6915;48.296;8.874;2023-07-29T05:16:47;18.90;99.90
13686;DHT22;6915;48.296;8.874;2023-07-29T05:19:15;18.60;99.90
13686;DHT22;6915;48.296;8.874;2023-07-29T05:21:45;18.40;99.90
13686;DHT22;6915;48.296;8.874;2023-07-29T05:24:14;18.30;99.90
13686;DHT22;6915;48.296;8.874;2023-07-29T05:26:43;18.40;99.90
13686;DHT22;6915;48.296;8.874;2023-07-29T05:29:11;18.50;99.90
13686;DHT22;6915;48.296;8.874;2023-07-29T05:31:40;18.90;99.90
13686;DHT22;6915;48.296;8.874;2023-07-29T05:34:08;19.20;99.90
13686;DHT22;6915;48.296;8.874;2023-07-29T05:36:37;19.30;99.90
13686;DHT22;6915;48.296;8.874;2023-07-29T05:39:08;19.80;99.90
13686;DHT22;6915;48.296;8.874;2023-07-29T05:41:36;20.50;99.90
13686;DHT22;6915;48.296;8.874;2023-07-29T05:44:05;21.10;99.90
13686;DHT22;6915;48.296;8.874;2023-07-29T05:46:34;21.90;99.90
13686;DHT22;6915;48.296;8.874;2023-07-29T05:49:02;22.50;99.90
13686;DHT22;6915;48.296;8.874;2023-07-29T05:51:31;22.90;99.90
13686;DHT22;6915;48.296;8.874;2023-07-29T05:53:59;22.80;99.90
13686;DHT22;6915;48.296;8.874;2023-07-29T05:56:29;22.70;99.90
13686;DHT22;6915;48.296;8.874;2023-07-29T05:58:58;22.80;99.90
13686;DHT22;6915;48.296;8.874;2023-07-29T06:01:28;22.60;99.90
13686;DHT22;6915;48.296;8.874;2023-07-29T06:03:56;22.30;99.90
13686;DHT22;6915;48.296;8.874;2023-07-29T06:06:25;22.00;99.90
13686;DHT22;6915;48.296;8.874;2023-07-29T06:08:53;21.80;99.90
13686;DHT22;6915;48.296;8.874;2023-07-29T06:11:21;21.90;99.90
13686;DHT22;6915;48.296;8.874;2023-07-29T06:13:52;22.00;99.90
13686;DHT22;6915;48.296;8.874;2023-07-29T06:16:20;22.00;99.90
13686;DHT22;6915;48.296;8.874;2023-07-29T06:18:49;21.90;99.90
13686;DHT22;6915;48.296;8.874;2023-07-29T06:21:20;22.00;99.90
13686;DHT22;6915;48.296;8.874;2023-07-29T06:23:49;22.30;99.90
13686;DHT22;6915;48.296;8.874;2023-07-29T06:26:18;22.60;99.90
13686;DHT22;6915;48.296;8.874;2023-07-29T06:28:47;22.70;99.90
13686;DHT22;6915;48.296;8.874;2023-07-29T06:31:17;22.70;99.90
13686;DHT22;6915;48.296;8.874;2023-07-29T06:33:45;22.50;99.90
13686;DHT22;6915;48.296;8.874;2023-07-29T06:36:14;22.30;99.90
13686;DHT22;6915;48.296;8.874;2023-07-29T06:38:42;21.90;99.90
13686;DHT22;6915;48.296;8.874;2023-07-29T06:41:11;21.80;99.90
13686;DHT22;6915;48.296;8.874;2023-07-29T06:43:40;21.50;99.90
13686;DHT22;6915;48.296;8.874;2023-07-29T06:46:08;21.30;99.90
13686;DHT22;6915;48.296;8.874;2023-07-29T06:48:39;21.00;99.90
13686;DHT22;6915;48.296;8.874;2023-07-29T06:51:07;20.70;99.90
13686;DHT22;6915;48.296;8.874;2023-07-29T06:53:36;20.20;99.90
13686;DHT22;6915;48.296;8.874;2023-07-29T06:56:05;19.60;99.90
13686;DHT22;6915;48.296;8.874;2023-07-29T06:58:34;19.30;99.90
13686;DHT22;6915;48.296;8.874;2023-07-29T07:01:03;19.10;99.90
13686;DHT22;6915;48.296;8.874;2023-07-29T07:03:31;18.90;99.90
13686;DHT22;6915;48.296;8.874;2023-07-29T07:06:01;18.90;99.90
13686;DHT22;6915;48.296;8.874;2023-07-29T07:08:30;19.00;99.90
13686;DHT22;6915;48.296;8.874;2023-07-29T07:10:58;19.10;99.90
13686;DHT22;6915;48.296;8.874;2023-07-29T07:13:27;19.10;99.90
13686;DHT22;6915;48.296;8.874;2023-07-29T07:15:56;19.10;99.90
13686;DHT22;6915;48.296;8.874;2023-07-29T07:18:25;19.10;99.90
13686;DHT22;6915;48.296;8.874;2023-07-29T07:20:54;19.10;99.90
13686;DHT22;6915;48.296;8.874;2023-07-29T07:23:24;19.20;99.90
13686;DHT22;6915;48.296;8.874;2023-07-29T07:25:53;19.30;99.90
13686;DHT22;6915;48.296;8.874;2023-07-29T07:33:26;19.40;99.90
13686;DHT22;6915;48.296;8.874;2023-07-29T07:35:55;19.40;99.90
13686;DHT22;6915;48.296;8.874;2023-07-29T07:38:25;19.30;99.90
13686;DHT22;6915;48.296;8.874;2023-07-29T07:40:57;19.30;99.90
13686;DHT22;6915;48.296;8.874;2023-07-29T07:43:26;19.30;99.90
13686;DHT22;6915;48.296;8.874;2023-07-29T07:46:00;19.30;99.90
13686;DHT22;6915;48.296;8.874;2023-07-29T07:48:29;19.30;99.90
13686;DHT22;6915;48.296;8.874;2023-07-29T07:50:57;19.20;99.90
13686;DHT22;6915;48.296;8.874;2023-07-29T07:53:28;19.20;99.90
13686;DHT22;6915;48.296;8.874;2023-07-29T07:55:56;19.20;99.90
13686;DHT22;6915;48.296;8.874;2023-07-29T07:58:25;19.10;99.90
13686;DHT22;6915;48.296;8.874;2023-07-29T08:00:53;19.10;99.90
13686;DHT22;6915;48.296;8.874;2023-07-29T08:03:29;19.10;99.90
13686;DHT22;6915;48.296;8.874;2023-07-29T08:05:57;19.20;99.90
13686;DHT22;6915;48.296;8.874;2023-07-29T08:08:26;19.30;99.90
13686;DHT22;6915;48.296;8.874;2023-07-29T08:10:56;19.60;99.90
13686;DHT22;6915;48.296;8.874;2023-07-29T08:13:24;19.80;99.90
13686;DHT22;6915;48.296;8.874;2023-07-29T08:15:54;20.00;99.90
13686;DHT22;6915;48.296;8.874;2023-07-29T08:18:23;20.20;99.90
13686;DHT22;6915;48.296;8.874;2023-07-29T08:20:54;20.40;99.90
13686;DHT22;6915;48.296;8.874;2023-07-29T08:23:25;20.40;99.90
13686;DHT22;6915;48.296;8.874;2023-07-29T08:25:56;20.50;99.90
13686;DHT22;6915;48.296;8.874;2023-07-29T08:28:30;20.70;99.90
13686;DHT22;6915;48.296;8.874;2023-07-29T08:30:59;20.90;99.90
13686;DHT22;6915;48.296;8.874;2023-07-29T08:33:28;21.10;99.90
13686;DHT22;6915;48.296;8.874;2023-07-29T08:35:57;21.40;99.90
13686;DHT22;6915;48.296;8.874;2023-07-29T08:38:25;21.80;99.90
13686;DHT22;6915;48.296;8.874;2023-07-29T08:40:57;22.00;99.90
13686;DHT22;6915;48.296;8.874;2023-07-29T08:43:29;22.20;99.90
13686;DHT22;6915;48.296;8.874;2023-07-29T08:45:59;22.40;99.90
13686;DHT22;6915;48.296;8.874;2023-07-29T08:48:32;22.40;99.90
13686;DHT22;6915;48.296;8.874;2023-07-29T08:51:03;22.50;99.90
13686;DHT22;6915;48.296;8.874;2023-07-29T08:53:33;22.70;99.90
13686;DHT22;6915;48.296;8.874;2023-07-29T08:56:02;23.00;99.90
13686;DHT22;6915;48.296;8.874;2023-07-29T08:58:32;23.00;99.90
13686;DHT22;6915;48.296;8.874;2023-07-29T09:01:01;23.30;99.90
13686;DHT22;6915;48.296;8.874;2023-07-29T09:03:30;23.40;99.90
13686;DHT22;6915;48.296;8.874;2023-07-29T09:05:59;23.70;99.90
13686;DHT22;6915;48.296;8.874;2023-07-29T09:08:30;23.90;99.90
13686;DHT22;6915;48.296;8.874;2023-07-29T09:11:00;23.90;99.90
13686;DHT22;6915;48.296;8.874;2023-07-29T09:13:29;23.90;99.90
13686;DHT22;6915;48.296;8.874;2023-07-29T09:15:59;23.80;99.90
13686;DHT22;6915;48.296;8.874;2023-07-29T09:18:28;23.80;99.90
13686;DHT22;6915;48.296;8.874;2023-07-29T09:21:00;23.70;99.90
13686;DHT22;6915;48.296;8.874;2023-07-29T09:23:32;23.60;99.90
13686;DHT22;6915;48.296;8.874;2023-07-29T09:26:08;23.50;99.90
13686;DHT22;6915;48.296;8.874;2023-07-29T09:28:38;23.50;99.90
13686;DHT22;6915;48.296;8.874;2023-07-29T09:31:07;23.30;99.90
13686;DHT22;6915;48.296;8.874;2023-07-29T09:33:46;22.80;99.90
13686;DHT22;6915;48.296;8.874;2023-07-29T09:36:15;22.40;99.90
13686;DHT22;6915;48.296;8.874;2023-07-29T09:38:46;22.00;99.90
13686;DHT22;6915;48.296;8.874;2023-07-29T09:46:19;21.50;99.90
13686;DHT22;6915;48.296;8.874;2023-07-29T09:48:52;21.50;99.90
13686;DHT22;6915;48.296;8.874;2023-07-29T09:51:21;21.60;99.90
13686;DHT22;6915;48.296;8.874;2023-07-29T09:53:51;21.70;99.90
13686;DHT22;6915;48.296;8.874;2023-07-29T09:56:26;22.10;99.90
13686;DHT22;6915;48.296;8.874;2023-07-29T09:58:57;22.50;99.90
13686;DHT22;6915;48.296;8.874;2023-07-29T10:01:27;22.90;99.90
13686;DHT22;6915;48.296;8.874;2023-07-29T10:03:57;23.30;99.90
13686;DHT22;6915;48.296;8.874;2023-07-29T10:06:29;23.60;99.90
13686;DHT22;6915;48.296;8.874;2023-07-29T10:08:59;23.90;99.90
13686;DHT22;6915;48.296;8.874;2023-07-29T10:11:29;24.40;99.90
13686;DHT22;6915;48.296;8.874;2023-07-29T10:13:59;24.70;99.90
13686;DHT22;6915;48.296;8.874;2023-07-29T10:16:31;24.80;99.90
13686;DHT22;6915;48.296;8.874;2023-07-29T10:19:01;24.60;99.90
13686;DHT22;6915;48.296;8.874;2023-07-29T10:21:31;24.40;99.90
13686;DHT22;6915;48.296;8.874;2023-07-29T10:24:03;24.20;99.90
13686;DHT22;6915;48.296;8.874;2023-07-29T10:26:35;24.10;99.90
13686;DHT22;6915;48.296;8.874;2023-07-29T10:29:06;24.20;99.90
13686;DHT22;6915;48.296;8.874;2023-07-29T10:31:38;24.20;99.90
13686;DHT22;6915;48.296;8.874;2023-07-29T10:34:07;24.10;99.90
13686;DHT22;6915;48.296;8.874;2023-07-29T10:36:37;24.20;99.90
13686;DHT22;6915;48.296;8.874;2023-07-29T10:39:05;24.50;99.90
13686;DHT22;6915;48.296;8.874;2023-07-29T10:41:55;24.40;99.90
13686;DHT22;6915;48.296;8.874;2023-07-29T10:44:48;24.30;99.90
13686;DHT22;6915;48.296;8.874;2023-07-29T10:47:23;24.40;99.90
13686;DHT22;6915;48.296;8.874;2023-07-29T10:49:53;24.40;99.90
13686;DHT22;6915;48.296;8.874;2023-07-29T10:52:40;24.40;99.90
13686;DHT22;6915;48.296;8.874;2023-07-29T10:55:23;24.40;99.90
13686;DHT22;6915;48.296;8.874;2023-07-29T10:57:54;24.20;99.90
13686;DHT22;6915;48.296;8.874;2023-07-29T11:00:32;24.00;99.90
13686;DHT22;6915;48.296;8.874;2023-07-29T11:03:05;24.10;99.90
13686;DHT22;6915;48.296;8.874;2023-07-29T11:05:43;24.20;99.90
13686;DHT22;6915;48.296;8.874;2023-07-29T11:08:19;24.30;99.90
13686;DHT22;6915;48.296;8.874;2023-07-29T11:10:59;24.30;99.90
13686;DHT22;6915;48.296;8.874;2023-07-29T11:13:29;24.30;99.90
13686;DHT22;6915;48.296;8.874;2023-07-29T11:15:58;24.30;99.90
13686;DHT22;6915;48.296;8.874;2023-07-29T11:18:31;24.30;99.90
13686;DHT22;6915;48.296;8.874;2023-07-29T11:21:01;24.20;99.90
13686;DHT22;6915;48.296;8.874;2023-07-29T11:23:33;24.30;99.90
13686;DHT22;6915;48.296;8.874;2023-07-29T11:26:02;24.20;99.90
13686;DHT22;6915;48.296;8.874;2023-07-29T11:28:37;24.10;99.90
13686;DHT22;6915;48.296;8.874;2023-07-29T11:31:05;24.20;99.90
13686;DHT22;6915;48.296;8.874;2023-07-29T11:33:38;24.40;99.90
13686;DHT22;6915;48.296;8.874;2023-07-29T11:36:07;24.60;99.90
13686;DHT22;6915;48.296;8.874;2023-07-29T11:38:46;25.10;99.90
13686;DHT22;6915;48.296;8.874;2023-07-29T11:41:18;25.00;99.90
13686;DHT22;6915;48.296;8.874;2023-07-29T11:43:47;24.80;99.90
13686;DHT22;6915;48.296;8.874;2023-07-29T11:46:16;24.60;99.90
13686;DHT22;6915;48.296;8.874;2023-07-29T11:48:50;24.60;99.90
13686;DHT22;6915;48.296;8.874;2023-07-29T11:51:19;24.90;99.90
13686;DHT22;6915;48.296;8.874;2023-07-29T11:53:47;25.20;99.90
13686;DHT22;6915;48.296;8.874;2023-07-29T11:56:17;25.30;99.90
13686;DHT22;6915;48.296;8.874;2023-07-29T11:58:45;25.40;99.90
13686;DHT22;6915;48.296;8.874;2023-07-29T12:01:15;25.30;99.90
13686;DHT22;6915;48.296;8.874;2023-07-29T12:03:44;25.40;99.90
13686;DHT22;6915;48.296;8.874;2023-07-29T12:06:14;25.60;99.90
13686;DHT22;6915;48.296;8.874;2023-07-29T12:08:43;25.80;99.90
13686;DHT22;6915;48.296;8.874;2023-07-29T12:11:13;26.00;99.90
13686;DHT22;6915;48.296;8.874;2023-07-29T12:13:43;26.30;99.90
13686;DHT22;6915;48.296;8.874;2023-07-29T12:16:18;26.60;99.90
13686;DHT22;6915;48.296;8.874;2023-07-29T12:18:49;26.90;99.90
13686;DHT22;6915;48.296;8.874;2023-07-29T12:21:20;27.00;99.90
13686;DHT22;6915;48.296;8.874;2023-07-29T12:23:49;26.80;99.90
13686;DHT22;6915;48.296;8.874;2023-07-29T12:26:18;26.40;99.90
13686;DHT22;6915;48.296;8.874;2023-07-29T12:28:48;26.40;99.90
13686;DHT22;6915;48.296;8.874;2023-07-29T12:31:17;26.30;99.90
13686;DHT22;6915;48.296;8.874;2023-07-29T12:33:46;26.10;99.90
13686;DHT22;6915;48.296;8.874;2023-07-29T12:36:14;25.80;99.90
13686;DHT22;6915;48.296;8.874;2023-07-29T12:38:47;25.60;99.90
13686;DHT22;6915;48.296;8.874;2023-07-29T12:41:15;25.40;99.90
13686;DHT22;6915;48.296;8.874;2023-07-29T12:43:44;25.40;99.90
13686;DHT22;6915;48.296;8.874;2023-07-29T12:46:13;25.60;99.90
13686;DHT22;6915;48.296;8.874;2023-07-29T12:48:41;25.90;99.90
13686;DHT22;6915;48.296;8.874;2023-07-29T12:51:10;26.00;99.90
13686;DHT22;6915;48.296;8.874;2023-07-29T12:53:38;25.80;99.90
13686;DHT22;6915;48.296;8.874;2023-07-29T12:59:32;25.90;99.90
13686;DHT22;6915;48.296;8.874;2023-07-29T13:02:01;25.80;99.90
13686;DHT22;6915;48.296;8.874;2023-07-29T13:04:30;25.90;99.90
13686;DHT22;6915;48.296;8.874;2023-07-29T13:06:58;25.80;99.90
13686;DHT22;6915;48.296;8.874;2023-07-29T13:09:28;25.50;99.90
13686;DHT22;6915;48.296;8.874;2023-07-29T13:11:56;25.50;99.90
13686;DHT22;6915;48.296;8.874;2023-07-29T13:14:25;25.40;99.90
13686;DHT22;6915;48.296;8.874;2023-07-29T13:16:56;25.40;99.90
13686;DHT22;6915;48.296;8.874;2023-07-29T13:19:25;25.20;99.90
13686;DHT22;6915;48.296;8.874;2023-07-29T13:21:54;25.40;99.90
13686;DHT22;6915;48.296;8.874;2023-07-29T13:24:24;25.70;99.90
13686;DHT22;6915;48.296;8.874;2023-07-29T13:26:53;25.80;99.90
13686;DHT22;6915;48.296;8.874;2023-07-29T13:29:22;25.70;99.90
13686;DHT22;6915;48.296;8.874;2023-07-29T13:31:51;25.50;99.90
13686;DHT22;6915;48.296;8.874;2023-07-29T13:34:22;25.40;99.90
13686;DHT22;6915;48.296;8.874;2023-07-29T13:36:51;25.10;99.90
13686;DHT22;6915;48.296;8.874;2023-07-29T13:39:21;25.00;99.90
13686;DHT22;6915;48.296;8.874;2023-07-29T13:41:50;25.10;99.90
13686;DHT22;6915;48.296;8.874;2023-07-29T13:46:50;25.40;99.90
13686;DHT22;6915;48.296;8.874;2023-07-29T13:49:19;25.40;99.90
13686;DHT22;6915;48.296;8.874;2023-07-29T13:51:50;25.50;99.90
13686;DHT22;6915;48.296;8.874;2023-07-29T13:54:20;25.30;99.90
13686;DHT22;6915;48.296;8.874;2023-07-29T13:56:49;25.30;99.90
13686;DHT22;6915;48.296;8.874;2023-07-29T13:59:18;25.20;99.90
13686;DHT22;6915;48.296;8.874;2023-07-29T14:01:47;25.20;99.90
13686;DHT22;6915;48.296;8.874;2023-07-29T14:04:16;25.10;99.90
13686;DHT22;6915;48.296;8.874;2023-07-29T14:06:45;24.90;99.90
13686;DHT22;6915;48.296;8.874;2023-07-29T14:09:16;24.80;99.90
13686;DHT22;6915;48.296;8.874;2023-07-29T14:11:46;24.70;99.90
13686;DHT22;6915;48.296;8.874;2023-07-29T14:14:15;24.60;99.90
13686;DHT22;6915;48.296;8.874;2023-07-29T14:16:44;24.20;99.90
13686;DHT22;6915;48.296;8.874;2023-07-29T14:19:15;23.70;99.90
13686;DHT22;6915;48.296;8.874;2023-07-29T14:21:47;22.90;99.90
13686;DHT22;6915;48.296;8.874;2023-07-29T14:24:21;22.20;99.90
13686;DHT22;6915;48.296;8.874;2023-07-29T14:26:51;22.00;99.90
13686;DHT22;6915;48.296;8.874;2023-07-29T14:29:22;22.10;99.90
13686;DHT22;6915;48.296;8.874;2023-07-29T14:31:51;22.20;99.90
13686;DHT22;6915;48.296;8.874;2023-07-29T14:34:20;22.40;99.90
13686;DHT22;6915;48.296;8.874;2023-07-29T14:36:49;22.60;99.90
13686;DHT22;6915;48.296;8.874;2023-07-29T14:39:21;22.70;99.90
13686;DHT22;6915;48.296;8.874;2023-07-29T14:41:49;22.80;99.90
13686;DHT22;6915;48.296;8.874;2023-07-29T14:44:19;22.80;99.90
13686;DHT22;6915;48.296;8.874;2023-07-29T14:46:48;22.70;99.90
13686;DHT22;6915;48.296;8.874;2023-07-29T14:49:17;22.60;99.90
13686;DHT22;6915;48.296;8.874;2023-07-29T14:51:52;22.50;99.90
13686;DHT22;6915;48.296;8.874;2023-07-29T14:54:34;22.30;99.90
13686;DHT22;6915;48.296;8.874;2023-07-29T15:20:28;21.50;99.90
13686;DHT22;6915;48.296;8.874;2023-07-29T15:22:56;21.60;99.90
13686;DHT22;6915;48.296;8.874;2023-07-29T15:25:25;21.60;99.90
13686;DHT22;6915;48.296;8.874;2023-07-29T15:27:53;21.50;99.90
13686;DHT22;6915;48.296;8.874;2023-07-29T15:30:22;21.50;99.90
13686;DHT22;6915;48.296;8.874;2023-07-29T15:32:52;21.50;99.90
13686;DHT22;6915;48.296;8.874;2023-07-29T15:35:23;21.50;99.90
13686;DHT22;6915;48.296;8.874;2023-07-29T15:37:54;21.60;99.90
13686;DHT22;6915;48.296;8.874;2023-07-29T15:40:22;21.60;99.90
13686;DHT22;6915;48.296;8.874;2023-07-29T15:42:51;21.70;99.90
13686;DHT22;6915;48.296;8.874;2023-07-29T15:45:21;21.80;99.90
13686;DHT22;6915;48.296;8.874;2023-07-29T15:47:54;21.90;99.90
13686;DHT22;6915;48.296;8.874;2023-07-29T15:50:23;22.10;99.90
13686;DHT22;6915;48.296;8.874;2023-07-29T15:52:51;22.20;99.90
13686;DHT22;6915;48.296;8.874;2023-07-29T15:55:21;22.30;99.90
13686;DHT22;6915;48.296;8.874;2023-07-29T15:57:49;22.30;99.90
13686;DHT22;6915;48.296;8.874;2023-07-29T16:00:18;22.40;99.90
13686;DHT22;6915;48.296;8.874;2023-07-29T16:02:46;22.50;99.90
13686;DHT22;6915;48.296;8.874;2023-07-29T16:05:16;22.70;99.90
13686;DHT22;6915;48.296;8.874;2023-07-29T16:07:46;22.80;99.90
13686;DHT22;6915;48.296;8.874;2023-07-29T16:10:17;22.70;99.90
13686;DHT22;6915;48.296;8.874;2023-07-29T16:12:46;22.70;99.90
13686;DHT22;6915;48.296;8.874;2023-07-29T16:15:15;22.60;99.90
13686;DHT22;6915;48.296;8.874;2023-07-29T16:17:45;22.70;99.90
13686;DHT22;6915;48.296;8.874;2023-07-29T16:20:17;22.60;99.90
13686;DHT22;6915;48.296;8.874;2023-07-29T16:22:46;22.50;99.90
13686;DHT22;6915;48.296;8.874;2023-07-29T16:25:15;22.50;99.90
13686;DHT22;6915;48.296;8.874;2023-07-29T16:27:46;22.40;99.90
13686;DHT22;6915;48.296;8.874;2023-07-29T16:30:15;22.20;99.90
13686;DHT22;6915;48.296;8.874;2023-07-29T16:32:44;22.10;99.90
13686;DHT22;6915;48.296;8.874;2023-07-29T16:35:13;22.00;99.90
13686;DHT22;6915;48.296;8.874;2023-07-29T16:37:42;22.00;99.90
13686;DHT22;6915;48.296;8.874;2023-07-29T16:40:11;21.90;99.90